sensor_id;sensor_type;location;lat;lon;timestamp;P1;durP1;ratioP1;P2;durP2;ratioP2
54937;SDS011;52756;52.826;6.214;2024-02-23T00:02:20;3.60;;;0.40;;
54937;SDS011;52756;52.826;6.214;2024-02-23T00:04:46;2.83;;;0.38;;
54937;SDS011;52756;52.826;6.214;2024-02-23T00:07:11;2.55;;;0.40;;
54937;SDS011;52756;52.826;6.214;2024-02-23T00:09:37;1.45;;;0.55;;
54937;SDS011;52756;52.826;6.214;2024-02-23T00:12:03;1.83;;;0.30;;
54937;SDS011;52756;52.826;6.214;2024-02-23T00:14:31;2.10;;;0.47;;
54937;SDS011;52756;52.826;6.214;2024-02-23T00:16:57;1.08;;;0.35;;
54937;SDS011;52756;52.826;6.214;2024-02-23T00:19:23;0.80;;;0.30;;
54937;SDS011;52756;52.826;6.214;2024-02-23T00:21:50;0.85;;;0.20;;
54937;SDS011;52756;52.826;6.214;2024-02-23T00:24:17;2.20;;;0.20;;
54937;SDS011;52756;52.826;6.214;2024-02-23T00:26:45;1.80;;;0.40;;
54937;SDS011;52756;52.826;6.214;2024-02-23T00:29:11;2.55;;;0.90;;
54937;SDS011;52756;52.826;6.214;2024-02-23T00:31:40;1.05;;;0.10;;
54937;SDS011;52756;52.826;6.214;2024-02-23T00:34:10;0.98;;;0.28;;
54937;SDS011;52756;52.826;6.214;2024-02-23T00:36:41;0.98;;;0.20;;
54937;SDS011;52756;52.826;6.214;2024-02-23T00:39:07;1.02;;;0.10;;
54937;SDS011;52756;52.826;6.214;2024-02-23T00:41:34;0.85;;;0.20;;
54937;SDS011;52756;52.826;6.214;2024-02-23T00:44:00;1.95;;;0.35;;
54937;SDS011;52756;52.826;6.214;2024-02-23T00:46:26;0.38;;;0.20;;
54937;SDS011;52756;52.826;6.214;2024-02-23T00:48:51;0.38;;;0.17;;
54937;SDS011;52756;52.826;6.214;2024-02-23T00:51:17;0.30;;;0.17;;
54937;SDS011;52756;52.826;6.214;2024-02-23T00:53:42;3.38;;;0.40;;
54937;SDS011;52756;52.826;6.214;2024-02-23T00:56:08;1.40;;;0.20;;
54937;SDS011;52756;52.826;6.214;2024-02-23T00:58:34;0.93;;;0.20;;
54937;SDS011;52756;52.826;6.214;2024-02-23T01:01:00;0.55;;;0.20;;
54937;SDS011;52756;52.826;6.214;2024-02-23T01:03:25;2.25;;;0.40;;
54937;SDS011;52756;52.826;6.214;2024-02-23T01:05:51;1.85;;;0.32;;
54937;SDS011;52756;52.826;6.214;2024-02-23T01:08:17;2.28;;;0.60;;
54937;SDS011;52756;52.826;6.214;2024-02-23T01:10:42;1.70;;;0.50;;
54937;SDS011;52756;52.826;6.214;2024-02-23T01:13:08;2.95;;;0.60;;
54937;SDS011;52756;52.826;6.214;2024-02-23T01:15:34;4.05;;;0.65;;
54937;SDS011;52756;52.826;6.214;2024-02-23T01:17:59;3.75;;;0.75;;
54937;SDS011;52756;52.826;6.214;2024-02-23T01:20:25;5.22;;;0.90;;
54937;SDS011;52756;52.826;6.214;2024-02-23T01:22:51;3.10;;;0.85;;
54937;SDS011;52756;52.826;6.214;2024-02-23T01:25:16;4.15;;;1.00;;
54937;SDS011;52756;52.826;6.214;2024-02-23T01:27:42;6.22;;;1.35;;
54937;SDS011;52756;52.826;6.214;2024-02-23T01:30:09;5.57;;;1.17;;
54937;SDS011;52756;52.826;6.214;2024-02-23T01:32:36;7.53;;;1.60;;
54937;SDS011;52756;52.826;6.214;2024-02-23T01:35:03;8.98;;;2.08;;
54937;SDS011;52756;52.826;6.214;2024-02-23T01:37:30;7.18;;;1.65;;
54937;SDS011;52756;52.826;6.214;2024-02-23T01:39:56;8.45;;;2.63;;
54937;SDS011;52756;52.826;6.214;2024-02-23T01:42:22;10.60;;;1.90;;
54937;SDS011;52756;52.826;6.214;2024-02-23T01:44:48;13.48;;;2.05;;
54937;SDS011;52756;52.826;6.214;2024-02-23T01:47:14;11.73;;;1.88;;
54937;SDS011;52756;52.826;6.214;2024-02-23T01:49:40;8.65;;;1.92;;
54937;SDS011;52756;52.826;6.214;2024-02-23T01:52:07;11.13;;;2.20;;
54937;SDS011;52756;52.826;6.214;2024-02-23T01:54:33;11.55;;;2.13;;
54937;SDS011;52756;52.826;6.214;2024-02-23T01:56:59;9.30;;;2.53;;
54937;SDS011;52756;52.826;6.214;2024-02-23T01:59:25;9.52;;;1.70;;
54937;SDS011;52756;52.826;6.214;2024-02-23T02:01:52;11.55;;;1.80;;
54937;SDS011;52756;52.826;6.214;2024-02-23T02:04:18;8.18;;;1.92;;
54937;SDS011;52756;52.826;6.214;2024-02-23T02:06:45;12.00;;;2.03;;
54937;SDS011;52756;52.826;6.214;2024-02-23T02:09:11;14.93;;;2.00;;
54937;SDS011;52756;52.826;6.214;2024-02-23T02:11:46;13.25;;;2.17;;
54937;SDS011;52756;52.826;6.214;2024-02-23T02:14:15;9.38;;;1.90;;
54937;SDS011;52756;52.826;6.214;2024-02-23T02:16:41;7.82;;;1.60;;
54937;SDS011;52756;52.826;6.214;2024-02-23T02:19:09;8.25;;;1.80;;
54937;SDS011;52756;52.826;6.214;2024-02-23T02:21:35;11.35;;;1.80;;
54937;SDS011;52756;52.826;6.214;2024-02-23T02:24:01;6.63;;;1.45;;
54937;SDS011;52756;52.826;6.214;2024-02-23T02:26:27;10.15;;;2.20;;
54937;SDS011;52756;52.826;6.214;2024-02-23T02:28:53;10.07;;;2.35;;
54937;SDS011;52756;52.826;6.214;2024-02-23T02:31:19;8.02;;;1.98;;
54937;SDS011;52756;52.826;6.214;2024-02-23T02:33:44;10.85;;;2.50;;
54937;SDS011;52756;52.826;6.214;2024-02-23T02:36:10;9.95;;;2.20;;
54937;SDS011;52756;52.826;6.214;2024-02-23T02:38:36;10.52;;;1.80;;
54937;SDS011;52756;52.826;6.214;2024-02-23T02:41:02;8.98;;;1.60;;
54937;SDS011;52756;52.826;6.214;2024-02-23T02:43:28;9.85;;;1.42;;
54937;SDS011;52756;52.826;6.214;2024-02-23T02:45:54;8.35;;;1.65;;
54937;SDS011;52756;52.826;6.214;2024-02-23T02:48:19;7.07;;;1.48;;
54937;SDS011;52756;52.826;6.214;2024-02-23T02:50:45;11.82;;;1.80;;
54937;SDS011;52756;52.826;6.214;2024-02-23T02:53:10;8.40;;;1.55;;
54937;SDS011;52756;52.826;6.214;2024-02-23T02:55:37;7.82;;;1.70;;
54937;SDS011;52756;52.826;6.214;2024-02-23T02:58:06;9.57;;;1.60;;
54937;SDS011;52756;52.826;6.214;2024-02-23T03:00:31;12.02;;;1.50;;
54937;SDS011;52756;52.826;6.214;2024-02-23T03:02:57;9.90;;;1.73;;
54937;SDS011;52756;52.826;6.214;2024-02-23T03:05:23;4.60;;;1.38;;
54937;SDS011;52756;52.826;6.214;2024-02-23T03:07:48;5.60;;;1.67;;
54937;SDS011;52756;52.826;6.214;2024-02-23T03:10:14;9.05;;;1.40;;
54937;SDS011;52756;52.826;6.214;2024-02-23T03:12:40;7.30;;;1.48;;
54937;SDS011;52756;52.826;6.214;2024-02-23T03:15:06;7.93;;;1.33;;
54937;SDS011;52756;52.826;6.214;2024-02-23T03:17:33;5.90;;;1.35;;
54937;SDS011;52756;52.826;6.214;2024-02-23T03:19:59;8.80;;;1.63;;
54937;SDS011;52756;52.826;6.214;2024-02-23T03:22:25;8.30;;;1.25;;
54937;SDS011;52756;52.826;6.214;2024-02-23T03:24:50;9.07;;;1.55;;
54937;SDS011;52756;52.826;6.214;2024-02-23T03:27:16;11.32;;;2.03;;
54937;SDS011;52756;52.826;6.214;2024-02-23T03:29:41;9.90;;;1.67;;
54937;SDS011;52756;52.826;6.214;2024-02-23T03:32:07;5.78;;;1.20;;
54937;SDS011;52756;52.826;6.214;2024-02-23T03:34:33;8.38;;;1.42;;
54937;SDS011;52756;52.826;6.214;2024-02-23T03:36:58;7.45;;;1.17;;
54937;SDS011;52756;52.826;6.214;2024-02-23T03:39:26;8.95;;;1.75;;
54937;SDS011;52756;52.826;6.214;2024-02-23T03:41:53;9.85;;;1.58;;
54937;SDS011;52756;52.826;6.214;2024-02-23T03:44:19;6.45;;;1.40;;
54937;SDS011;52756;52.826;6.214;2024-02-23T03:46:44;13.27;;;2.00;;
54937;SDS011;52756;52.826;6.214;2024-02-23T03:49:10;6.60;;;1.38;;
54937;SDS011;52756;52.826;6.214;2024-02-23T03:51:36;5.85;;;1.20;;
54937;SDS011;52756;52.826;6.214;2024-02-23T03:54:04;6.50;;;1.33;;
54937;SDS011;52756;52.826;6.214;2024-02-23T03:56:37;5.78;;;1.48;;
54937;SDS011;52756;52.826;6.214;2024-02-23T03:59:06;7.40;;;1.52;;
54937;SDS011;52756;52.826;6.214;2024-02-23T04:01:34;11.85;;;1.80;;
54937;SDS011;52756;52.826;6.214;2024-02-23T04:04:01;10.02;;;1.80;;
54937;SDS011;52756;52.826;6.214;2024-02-23T04:06:27;7.25;;;1.75;;
54937;SDS011;52756;52.826;6.214;2024-02-23T04:08:52;8.85;;;1.45;;
54937;SDS011;52756;52.826;6.214;2024-02-23T04:11:18;6.40;;;1.67;;
54937;SDS011;52756;52.826;6.214;2024-02-23T04:13:44;8.80;;;1.38;;
54937;SDS011;52756;52.826;6.214;2024-02-23T04:16:10;6.88;;;1.88;;
54937;SDS011;52756;52.826;6.214;2024-02-23T04:18:35;9.43;;;1.52;;
54937;SDS011;52756;52.826;6.214;2024-02-23T04:21:01;12.63;;;1.67;;
54937;SDS011;52756;52.826;6.214;2024-02-23T04:23:26;8.35;;;1.63;;
54937;SDS011;52756;52.826;6.214;2024-02-23T04:25:52;9.55;;;2.15;;
54937;SDS011;52756;52.826;6.214;2024-02-23T04:28:17;5.40;;;1.42;;
54937;SDS011;52756;52.826;6.214;2024-02-23T04:30:43;10.07;;;1.98;;
54937;SDS011;52756;52.826;6.214;2024-02-23T04:33:09;6.32;;;1.60;;
54937;SDS011;52756;52.826;6.214;2024-02-23T04:35:34;8.57;;;1.75;;
54937;SDS011;52756;52.826;6.214;2024-02-23T04:38:00;10.38;;;1.70;;
54937;SDS011;52756;52.826;6.214;2024-02-23T04:40:25;9.27;;;2.00;;
54937;SDS011;52756;52.826;6.214;2024-02-23T04:42:51;6.78;;;2.20;;
54937;SDS011;52756;52.826;6.214;2024-02-23T04:45:16;6.82;;;2.17;;
54937;SDS011;52756;52.826;6.214;2024-02-23T04:47:42;6.72;;;1.65;;
54937;SDS011;52756;52.826;6.214;2024-02-23T04:50:08;5.88;;;1.27;;
54937;SDS011;52756;52.826;6.214;2024-02-23T04:52:34;7.85;;;1.33;;
54937;SDS011;52756;52.826;6.214;2024-02-23T04:54:59;5.65;;;2.10;;
54937;SDS011;52756;52.826;6.214;2024-02-23T04:57:25;4.13;;;1.52;;
54937;SDS011;52756;52.826;6.214;2024-02-23T04:59:50;8.70;;;1.95;;
54937;SDS011;52756;52.826;6.214;2024-02-23T05:02:16;8.23;;;2.08;;
54937;SDS011;52756;52.826;6.214;2024-02-23T05:04:42;7.38;;;2.20;;
54937;SDS011;52756;52.826;6.214;2024-02-23T05:07:07;7.20;;;2.05;;
54937;SDS011;52756;52.826;6.214;2024-02-23T05:09:33;8.93;;;2.72;;
54937;SDS011;52756;52.826;6.214;2024-02-23T05:11:59;7.03;;;2.20;;
54937;SDS011;52756;52.826;6.214;2024-02-23T05:14:25;9.10;;;2.78;;
54937;SDS011;52756;52.826;6.214;2024-02-23T05:16:51;11.77;;;3.40;;
54937;SDS011;52756;52.826;6.214;2024-02-23T05:19:17;11.27;;;3.80;;
54937;SDS011;52756;52.826;6.214;2024-02-23T05:21:42;7.28;;;3.50;;
54937;SDS011;52756;52.826;6.214;2024-02-23T05:24:08;10.07;;;4.50;;
54937;SDS011;52756;52.826;6.214;2024-02-23T05:26:35;8.25;;;4.03;;
54937;SDS011;52756;52.826;6.214;2024-02-23T05:29:01;10.02;;;4.38;;
54937;SDS011;52756;52.826;6.214;2024-02-23T05:31:46;11.65;;;4.68;;
54937;SDS011;52756;52.826;6.214;2024-02-23T05:34:14;11.52;;;4.43;;
54937;SDS011;52756;52.826;6.214;2024-02-23T05:36:40;8.70;;;4.85;;
54937;SDS011;52756;52.826;6.214;2024-02-23T05:39:05;13.68;;;5.00;;
54937;SDS011;52756;52.826;6.214;2024-02-23T05:41:32;8.00;;;3.80;;
54937;SDS011;52756;52.826;6.214;2024-02-23T05:43:58;11.18;;;4.22;;
54937;SDS011;52756;52.826;6.214;2024-02-23T05:46:24;10.32;;;4.53;;
54937;SDS011;52756;52.826;6.214;2024-02-23T05:48:49;9.95;;;4.45;;
54937;SDS011;52756;52.826;6.214;2024-02-23T05:51:15;7.95;;;3.67;;
54937;SDS011;52756;52.826;6.214;2024-02-23T05:53:41;6.50;;;3.83;;
54937;SDS011;52756;52.826;6.214;2024-02-23T05:56:06;8.45;;;3.90;;
54937;SDS011;52756;52.826;6.214;2024-02-23T05:58:32;9.48;;;4.40;;
54937;SDS011;52756;52.826;6.214;2024-02-23T06:00:58;8.88;;;3.70;;
54937;SDS011;52756;52.826;6.214;2024-02-23T06:03:23;11.73;;;5.43;;
54937;SDS011;52756;52.826;6.214;2024-02-23T06:05:49;8.65;;;4.05;;
54937;SDS011;52756;52.826;6.214;2024-02-23T06:08:14;13.68;;;4.53;;
54937;SDS011;52756;52.826;6.214;2024-02-23T06:10:40;11.07;;;4.15;;
54937;SDS011;52756;52.826;6.214;2024-02-23T06:13:08;9.30;;;3.60;;
54937;SDS011;52756;52.826;6.214;2024-02-23T06:15:33;9.80;;;3.72;;
54937;SDS011;52756;52.826;6.214;2024-02-23T06:18:01;9.70;;;4.53;;
54937;SDS011;52756;52.826;6.214;2024-02-23T06:20:27;10.65;;;4.57;;
54937;SDS011;52756;52.826;6.214;2024-02-23T06:22:53;8.02;;;4.03;;
54937;SDS011;52756;52.826;6.214;2024-02-23T06:25:18;10.50;;;4.63;;
54937;SDS011;52756;52.826;6.214;2024-02-23T06:27:44;6.97;;;3.95;;
54937;SDS011;52756;52.826;6.214;2024-02-23T06:30:09;10.50;;;4.88;;
54937;SDS011;52756;52.826;6.214;2024-02-23T06:32:36;9.25;;;4.85;;
54937;SDS011;52756;52.826;6.214;2024-02-23T06:35:01;8.18;;;4.43;;
54937;SDS011;52756;52.826;6.214;2024-02-23T06:37:28;10.43;;;4.90;;
54937;SDS011;52756;52.826;6.214;2024-02-23T06:39:53;11.25;;;4.72;;
54937;SDS011;52756;52.826;6.214;2024-02-23T06:42:20;9.50;;;4.60;;
54937;SDS011;52756;52.826;6.214;2024-02-23T06:44:46;12.65;;;5.38;;
54937;SDS011;52756;52.826;6.214;2024-02-23T06:47:12;14.32;;;4.88;;
54937;SDS011;52756;52.826;6.214;2024-02-23T06:49:41;10.52;;;4.90;;
54937;SDS011;52756;52.826;6.214;2024-02-23T06:52:08;8.80;;;4.03;;
54937;SDS011;52756;52.826;6.214;2024-02-23T06:54:34;11.20;;;4.28;;
54937;SDS011;52756;52.826;6.214;2024-02-23T06:56:59;9.05;;;3.97;;
54937;SDS011;52756;52.826;6.214;2024-02-23T06:59:25;8.10;;;4.25;;
54937;SDS011;52756;52.826;6.214;2024-02-23T07:01:51;6.82;;;3.53;;
54937;SDS011;52756;52.826;6.214;2024-02-23T07:04:17;10.60;;;4.00;;
54937;SDS011;52756;52.826;6.214;2024-02-23T07:06:43;9.45;;;4.28;;
54937;SDS011;52756;52.826;6.214;2024-02-23T07:09:09;8.45;;;3.78;;
54937;SDS011;52756;52.826;6.214;2024-02-23T07:11:36;10.65;;;4.57;;
54937;SDS011;52756;52.826;6.214;2024-02-23T07:14:02;11.45;;;4.00;;
54937;SDS011;52756;52.826;6.214;2024-02-23T07:16:27;7.47;;;3.40;;
54937;SDS011;52756;52.826;6.214;2024-02-23T07:18:53;5.72;;;3.67;;
54937;SDS011;52756;52.826;6.214;2024-02-23T07:21:20;9.00;;;3.72;;
54937;SDS011;52756;52.826;6.214;2024-02-23T07:23:46;9.38;;;4.30;;
54937;SDS011;52756;52.826;6.214;2024-02-23T07:26:11;7.80;;;3.97;;
54937;SDS011;52756;52.826;6.214;2024-02-23T07:28:37;7.07;;;3.58;;
54937;SDS011;52756;52.826;6.214;2024-02-23T07:31:02;7.68;;;3.75;;
54937;SDS011;52756;52.826;6.214;2024-02-23T07:33:28;7.60;;;4.68;;
54937;SDS011;52756;52.826;6.214;2024-02-23T07:35:54;6.35;;;3.50;;
54937;SDS011;52756;52.826;6.214;2024-02-23T07:38:19;10.60;;;3.58;;
54937;SDS011;52756;52.826;6.214;2024-02-23T07:40:45;7.70;;;3.28;;
54937;SDS011;52756;52.826;6.214;2024-02-23T07:43:10;7.90;;;3.60;;
54937;SDS011;52756;52.826;6.214;2024-02-23T07:45:36;7.43;;;3.13;;
54937;SDS011;52756;52.826;6.214;2024-02-23T07:48:02;10.32;;;2.97;;
54937;SDS011;52756;52.826;6.214;2024-02-23T07:50:28;7.38;;;3.33;;
54937;SDS011;52756;52.826;6.214;2024-02-23T07:52:54;7.40;;;3.35;;
54937;SDS011;52756;52.826;6.214;2024-02-23T07:55:20;8.93;;;3.50;;
54937;SDS011;52756;52.826;6.214;2024-02-23T07:57:45;6.07;;;2.35;;
54937;SDS011;52756;52.826;6.214;2024-02-23T08:00:11;7.30;;;2.58;;
54937;SDS011;52756;52.826;6.214;2024-02-23T08:02:37;8.43;;;2.50;;
54937;SDS011;52756;52.826;6.214;2024-02-23T08:05:03;7.65;;;2.95;;
54937;SDS011;52756;52.826;6.214;2024-02-23T08:07:29;8.95;;;2.63;;
54937;SDS011;52756;52.826;6.214;2024-02-23T08:09:56;5.35;;;2.10;;
54937;SDS011;52756;52.826;6.214;2024-02-23T08:12:22;7.53;;;2.20;;
54937;SDS011;52756;52.826;6.214;2024-02-23T08:14:47;4.88;;;1.67;;
54937;SDS011;52756;52.826;6.214;2024-02-23T08:17:14;5.32;;;1.90;;
54937;SDS011;52756;52.826;6.214;2024-02-23T08:19:40;8.20;;;2.05;;
54937;SDS011;52756;52.826;6.214;2024-02-23T08:22:05;8.40;;;1.90;;
54937;SDS011;52756;52.826;6.214;2024-02-23T08:24:31;5.35;;;1.70;;
54937;SDS011;52756;52.826;6.214;2024-02-23T08:26:56;5.88;;;1.63;;
54937;SDS011;52756;52.826;6.214;2024-02-23T08:29:22;6.80;;;1.65;;
54937;SDS011;52756;52.826;6.214;2024-02-23T08:31:48;6.63;;;1.40;;
54937;SDS011;52756;52.826;6.214;2024-02-23T08:34:14;4.50;;;1.60;;
54937;SDS011;52756;52.826;6.214;2024-02-23T08:36:39;8.20;;;1.88;;
54937;SDS011;52756;52.826;6.214;2024-02-23T08:39:05;6.25;;;1.60;;
54937;SDS011;52756;52.826;6.214;2024-02-23T08:41:30;4.80;;;1.77;;
54937;SDS011;52756;52.826;6.214;2024-02-23T08:43:56;7.63;;;2.00;;
54937;SDS011;52756;52.826;6.214;2024-02-23T08:46:22;4.88;;;1.88;;
54937;SDS011;52756;52.826;6.214;2024-02-23T08:48:47;7.40;;;2.22;;
54937;SDS011;52756;52.826;6.214;2024-02-23T08:51:13;5.00;;;1.60;;
54937;SDS011;52756;52.826;6.214;2024-02-23T08:53:39;4.95;;;1.70;;
54937;SDS011;52756;52.826;6.214;2024-02-23T08:56:06;9.18;;;2.30;;
54937;SDS011;52756;52.826;6.214;2024-02-23T08:58:36;6.85;;;1.60;;
54937;SDS011;52756;52.826;6.214;2024-02-23T09:01:02;5.38;;;1.42;;
54937;SDS011;52756;52.826;6.214;2024-02-23T09:03:29;4.93;;;1.33;;
54937;SDS011;52756;52.826;6.214;2024-02-23T09:05:54;8.15;;;1.70;;
54937;SDS011;52756;52.826;6.214;2024-02-23T09:08:20;4.70;;;1.30;;
54937;SDS011;52756;52.826;6.214;2024-02-23T09:10:46;3.95;;;1.42;;
54937;SDS011;52756;52.826;6.214;2024-02-23T09:13:11;7.65;;;2.03;;
54937;SDS011;52756;52.826;6.214;2024-02-23T09:15:37;6.22;;;1.67;;
54937;SDS011;52756;52.826;6.214;2024-02-23T09:18:03;6.43;;;1.77;;
54937;SDS011;52756;52.826;6.214;2024-02-23T09:20:28;6.20;;;1.33;;
54937;SDS011;52756;52.826;6.214;2024-02-23T09:22:54;8.25;;;1.42;;
54937;SDS011;52756;52.826;6.214;2024-02-23T09:25:20;5.75;;;1.48;;
54937;SDS011;52756;52.826;6.214;2024-02-23T09:27:46;5.50;;;1.40;;
54937;SDS011;52756;52.826;6.214;2024-02-23T09:30:12;5.30;;;1.30;;
54937;SDS011;52756;52.826;6.214;2024-02-23T09:32:38;4.22;;;1.30;;
54937;SDS011;52756;52.826;6.214;2024-02-23T09:35:04;7.80;;;1.67;;
54937;SDS011;52756;52.826;6.214;2024-02-23T09:37:31;6.25;;;1.40;;
54937;SDS011;52756;52.826;6.214;2024-02-23T09:39:57;6.70;;;1.15;;
54937;SDS011;52756;52.826;6.214;2024-02-23T09:42:22;5.80;;;1.17;;
54937;SDS011;52756;52.826;6.214;2024-02-23T09:44:57;5.57;;;1.08;;
54937;SDS011;52756;52.826;6.214;2024-02-23T09:47:26;3.63;;;1.17;;
54937;SDS011;52756;52.826;6.214;2024-02-23T09:49:53;6.63;;;1.25;;
54937;SDS011;52756;52.826;6.214;2024-02-23T09:52:20;3.00;;;1.00;;
54937;SDS011;52756;52.826;6.214;2024-02-23T09:54:47;7.20;;;1.40;;
54937;SDS011;52756;52.826;6.214;2024-02-23T09:57:13;3.75;;;1.02;;
54937;SDS011;52756;52.826;6.214;2024-02-23T09:59:41;4.35;;;1.42;;
54937;SDS011;52756;52.826;6.214;2024-02-23T10:02:11;4.13;;;1.10;;
54937;SDS011;52756;52.826;6.214;2024-02-23T10:04:40;8.18;;;2.13;;
54937;SDS011;52756;52.826;6.214;2024-02-23T10:07:08;4.53;;;1.17;;
54937;SDS011;52756;52.826;6.214;2024-02-23T10:09:34;4.90;;;1.52;;
54937;SDS011;52756;52.826;6.214;2024-02-23T10:12:03;7.63;;;1.52;;
54937;SDS011;52756;52.826;6.214;2024-02-23T10:14:29;4.88;;;1.40;;
54937;SDS011;52756;52.826;6.214;2024-02-23T10:16:55;10.55;;;1.45;;
54937;SDS011;52756;52.826;6.214;2024-02-23T10:19:21;5.80;;;1.02;;
54937;SDS011;52756;52.826;6.214;2024-02-23T10:21:46;4.72;;;1.70;;
54937;SDS011;52756;52.826;6.214;2024-02-23T10:24:12;6.72;;;1.30;;
54937;SDS011;52756;52.826;6.214;2024-02-23T10:26:41;4.50;;;0.95;;
54937;SDS011;52756;52.826;6.214;2024-02-23T10:29:06;5.10;;;1.75;;
54937;SDS011;52756;52.826;6.214;2024-02-23T10:31:34;4.75;;;1.20;;
54937;SDS011;52756;52.826;6.214;2024-02-23T10:34:08;4.47;;;1.38;;
54937;SDS011;52756;52.826;6.214;2024-02-23T10:36:37;3.70;;;1.13;;
54937;SDS011;52756;52.826;6.214;2024-02-23T10:39:06;4.22;;;1.00;;
54937;SDS011;52756;52.826;6.214;2024-02-23T10:41:34;7.57;;;1.63;;
54937;SDS011;52756;52.826;6.214;2024-02-23T10:44:02;12.55;;;1.55;;
54937;SDS011;52756;52.826;6.214;2024-02-23T10:46:30;4.78;;;0.93;;
54937;SDS011;52756;52.826;6.214;2024-02-23T10:48:56;5.43;;;1.30;;
54937;SDS011;52756;52.826;6.214;2024-02-23T10:51:27;9.50;;;1.75;;
54937;SDS011;52756;52.826;6.214;2024-02-23T10:53:54;4.60;;;0.90;;
54937;SDS011;52756;52.826;6.214;2024-02-23T10:56:20;6.38;;;1.40;;
54937;SDS011;52756;52.826;6.214;2024-02-23T10:58:47;5.15;;;1.10;;
54937;SDS011;52756;52.826;6.214;2024-02-23T11:01:13;6.13;;;1.80;;
54937;SDS011;52756;52.826;6.214;2024-02-23T11:03:41;3.22;;;1.10;;
54937;SDS011;52756;52.826;6.214;2024-02-23T11:06:09;7.20;;;1.40;;
54937;SDS011;52756;52.826;6.214;2024-02-23T11:08:35;6.03;;;1.17;;
54937;SDS011;52756;52.826;6.214;2024-02-23T11:11:08;7.57;;;1.00;;
54937;SDS011;52756;52.826;6.214;2024-02-23T11:13:34;3.90;;;1.20;;
54937;SDS011;52756;52.826;6.214;2024-02-23T11:16:04;4.88;;;1.58;;
54937;SDS011;52756;52.826;6.214;2024-02-23T11:18:31;5.68;;;1.00;;
54937;SDS011;52756;52.826;6.214;2024-02-23T11:21:00;5.30;;;1.17;;
54937;SDS011;52756;52.826;6.214;2024-02-23T11:23:38;5.25;;;1.42;;
54937;SDS011;52756;52.826;6.214;2024-02-23T11:26:27;5.10;;;1.20;;
54937;SDS011;52756;52.826;6.214;2024-02-23T11:28:53;7.57;;;1.20;;
54937;SDS011;52756;52.826;6.214;2024-02-23T11:31:19;7.00;;;1.50;;
54937;SDS011;52756;52.826;6.214;2024-02-23T11:33:50;3.80;;;1.10;;
54937;SDS011;52756;52.826;6.214;2024-02-23T11:38:57;4.88;;;1.02;;
54937;SDS011;52756;52.826;6.214;2024-02-23T11:41:24;5.28;;;1.48;;
54937;SDS011;52756;52.826;6.214;2024-02-23T11:43:51;3.50;;;0.73;;
54937;SDS011;52756;52.826;6.214;2024-02-23T11:46:18;3.38;;;0.95;;
54937;SDS011;52756;52.826;6.214;2024-02-23T11:48:44;5.05;;;1.13;;
54937;SDS011;52756;52.826;6.214;2024-02-23T11:51:12;6.75;;;2.58;;
54937;SDS011;52756;52.826;6.214;2024-02-23T11:53:40;4.68;;;1.30;;
54937;SDS011;52756;52.826;6.214;2024-02-23T11:56:06;6.65;;;1.50;;
54937;SDS011;52756;52.826;6.214;2024-02-23T11:58:32;4.60;;;1.33;;
54937;SDS011;52756;52.826;6.214;2024-02-23T12:00:59;5.78;;;1.50;;
54937;SDS011;52756;52.826;6.214;2024-02-23T12:03:31;4.80;;;1.60;;
54937;SDS011;52756;52.826;6.214;2024-02-23T12:06:01;5.13;;;1.30;;
54937;SDS011;52756;52.826;6.214;2024-02-23T12:08:30;6.72;;;1.42;;
54937;SDS011;52756;52.826;6.214;2024-02-23T12:11:02;5.35;;;1.50;;
54937;SDS011;52756;52.826;6.214;2024-02-23T12:13:29;3.50;;;1.00;;
54937;SDS011;52756;52.826;6.214;2024-02-23T12:15:54;4.35;;;0.90;;
54937;SDS011;52756;52.826;6.214;2024-02-23T12:18:21;4.63;;;1.20;;
54937;SDS011;52756;52.826;6.214;2024-02-23T12:20:58;3.15;;;1.38;;
54937;SDS011;52756;52.826;6.214;2024-02-23T12:23:42;4.32;;;1.15;;
54937;SDS011;52756;52.826;6.214;2024-02-23T12:26:12;7.18;;;1.73;;
54937;SDS011;52756;52.826;6.214;2024-02-23T12:28:39;8.63;;;1.88;;
54937;SDS011;52756;52.826;6.214;2024-02-23T12:31:05;3.97;;;1.17;;
54937;SDS011;52756;52.826;6.214;2024-02-23T12:33:32;4.82;;;1.83;;
54937;SDS011;52756;52.826;6.214;2024-02-23T12:36:03;3.42;;;1.20;;
54937;SDS011;52756;52.826;6.214;2024-02-23T12:38:29;9.32;;;2.55;;
54937;SDS011;52756;52.826;6.214;2024-02-23T12:40:55;2.90;;;0.98;;
54937;SDS011;52756;52.826;6.214;2024-02-23T12:43:21;7.28;;;1.25;;
54937;SDS011;52756;52.826;6.214;2024-02-23T12:45:49;4.97;;;1.50;;
54937;SDS011;52756;52.826;6.214;2024-02-23T12:48:16;3.80;;;1.30;;
54937;SDS011;52756;52.826;6.214;2024-02-23T12:50:42;6.72;;;2.13;;
54937;SDS011;52756;52.826;6.214;2024-02-23T12:53:09;3.28;;;1.30;;
54937;SDS011;52756;52.826;6.214;2024-02-23T12:56:03;3.90;;;1.20;;
54937;SDS011;52756;52.826;6.214;2024-02-23T12:58:33;5.95;;;2.05;;
54937;SDS011;52756;52.826;6.214;2024-02-23T13:01:02;4.50;;;1.40;;
54937;SDS011;52756;52.826;6.214;2024-02-23T13:03:29;3.45;;;1.45;;
54937;SDS011;52756;52.826;6.214;2024-02-23T13:05:55;3.95;;;1.80;;
54937;SDS011;52756;52.826;6.214;2024-02-23T13:08:22;4.68;;;1.50;;
54937;SDS011;52756;52.826;6.214;2024-02-23T13:10:48;5.70;;;1.50;;
54937;SDS011;52756;52.826;6.214;2024-02-23T13:13:14;3.63;;;1.60;;
54937;SDS011;52756;52.826;6.214;2024-02-23T13:15:41;4.78;;;1.38;;
54937;SDS011;52756;52.826;6.214;2024-02-23T13:18:07;3.95;;;1.50;;
54937;SDS011;52756;52.826;6.214;2024-02-23T13:20:33;5.10;;;1.27;;
54937;SDS011;52756;52.826;6.214;2024-02-23T13:22:58;4.47;;;1.33;;
54937;SDS011;52756;52.826;6.214;2024-02-23T13:25:24;3.33;;;1.40;;
54937;SDS011;52756;52.826;6.214;2024-02-23T13:27:50;8.25;;;1.92;;
54937;SDS011;52756;52.826;6.214;2024-02-23T13:30:15;4.85;;;1.70;;
54937;SDS011;52756;52.826;6.214;2024-02-23T13:32:41;5.63;;;1.63;;
54937;SDS011;52756;52.826;6.214;2024-02-23T13:35:06;5.13;;;1.80;;
54937;SDS011;52756;52.826;6.214;2024-02-23T13:37:33;4.45;;;1.60;;
54937;SDS011;52756;52.826;6.214;2024-02-23T13:39:59;4.35;;;1.65;;
54937;SDS011;52756;52.826;6.214;2024-02-23T13:42:25;5.68;;;1.60;;
54937;SDS011;52756;52.826;6.214;2024-02-23T13:44:51;6.18;;;2.58;;
54937;SDS011;52756;52.826;6.214;2024-02-23T13:47:17;5.32;;;1.80;;
54937;SDS011;52756;52.826;6.214;2024-02-23T13:49:42;4.40;;;1.73;;
54937;SDS011;52756;52.826;6.214;2024-02-23T13:52:08;9.30;;;1.80;;
54937;SDS011;52756;52.826;6.214;2024-02-23T13:54:34;5.38;;;1.98;;
54937;SDS011;52756;52.826;6.214;2024-02-23T13:56:59;4.25;;;1.63;;
54937;SDS011;52756;52.826;6.214;2024-02-23T13:59:25;5.47;;;2.05;;
54937;SDS011;52756;52.826;6.214;2024-02-23T14:01:50;5.50;;;1.75;;
54937;SDS011;52756;52.826;6.214;2024-02-23T14:04:16;4.15;;;1.63;;
54937;SDS011;52756;52.826;6.214;2024-02-23T14:06:42;3.83;;;1.35;;
54937;SDS011;52756;52.826;6.214;2024-02-23T14:09:08;5.72;;;1.73;;
54937;SDS011;52756;52.826;6.214;2024-02-23T14:11:34;5.13;;;1.50;;
54937;SDS011;52756;52.826;6.214;2024-02-23T14:14:00;6.13;;;1.85;;
54937;SDS011;52756;52.826;6.214;2024-02-23T14:16:27;4.63;;;1.40;;
54937;SDS011;52756;52.826;6.214;2024-02-23T14:18:53;3.30;;;1.40;;
54937;SDS011;52756;52.826;6.214;2024-02-23T14:21:19;4.43;;;1.77;;
54937;SDS011;52756;52.826;6.214;2024-02-23T14:23:46;3.28;;;1.10;;
54937;SDS011;52756;52.826;6.214;2024-02-23T14:26:11;4.50;;;1.50;;
54937;SDS011;52756;52.826;6.214;2024-02-23T14:28:37;5.18;;;1.70;;
54937;SDS011;52756;52.826;6.214;2024-02-23T14:31:03;4.70;;;1.60;;
54937;SDS011;52756;52.826;6.214;2024-02-23T14:33:29;6.80;;;2.30;;
54937;SDS011;52756;52.826;6.214;2024-02-23T14:35:55;5.55;;;2.25;;
54937;SDS011;52756;52.826;6.214;2024-02-23T14:38:20;5.82;;;1.90;;
54937;SDS011;52756;52.826;6.214;2024-02-23T14:40:47;5.63;;;1.52;;
54937;SDS011;52756;52.826;6.214;2024-02-23T14:43:13;4.80;;;1.58;;
54937;SDS011;52756;52.826;6.214;2024-02-23T14:45:39;5.05;;;2.00;;